sensor_id;sensor_type;location;lat;lon;timestamp;P1;durP1;ratioP1;P2;durP2;ratioP2
50161;SDS011;36061;48.116;11.612;2023-04-03T00:00:31;6.40;;;4.20;;
50161;SDS011;36061;48.116;11.612;2023-04-03T00:02:58;10.17;;;4.10;;
50161;SDS011;36061;48.116;11.612;2023-04-03T00:05:25;5.03;;;3.57;;
50161;SDS011;36061;48.116;11.612;2023-04-03T00:07:52;5.30;;;4.40;;
50161;SDS011;36061;48.116;11.612;2023-04-03T00:10:20;6.07;;;4.27;;
50161;SDS011;36061;48.116;11.612;2023-04-03T00:12:47;4.83;;;3.90;;
50161;SDS011;36061;48.116;11.612;2023-04-03T00:15:16;7.00;;;4.40;;
50161;SDS011;36061;48.116;11.612;2023-04-03T00:17:43;5.07;;;3.67;;
50161;SDS011;36061;48.116;11.612;2023-04-03T00:20:11;5.13;;;3.87;;
50161;SDS011;36061;48.116;11.612;2023-04-03T00:22:38;6.27;;;4.33;;
50161;SDS011;36061;48.116;11.612;2023-04-03T00:25:05;5.10;;;4.23;;
50161;SDS011;36061;48.116;11.612;2023-04-03T00:27:35;5.37;;;4.20;;
50161;SDS011;36061;48.116;11.612;2023-04-03T00:30:03;6.23;;;4.50;;
50161;SDS011;36061;48.116;11.612;2023-04-03T00:32:32;4.70;;;3.97;;
50161;SDS011;36061;48.116;11.612;2023-04-03T00:35:00;6.53;;;4.60;;
50161;SDS011;36061;48.116;11.612;2023-04-03T00:37:27;6.87;;;4.50;;
50161;SDS011;36061;48.116;11.612;2023-04-03T00:39:54;5.33;;;4.03;;
50161;SDS011;36061;48.116;11.612;2023-04-03T00:42:21;4.80;;;3.70;;
50161;SDS011;36061;48.116;11.612;2023-04-03T00:47:50;5.33;;;4.37;;
50161;SDS011;36061;48.116;11.612;2023-04-03T00:50:18;4.97;;;3.50;;
50161;SDS011;36061;48.116;11.612;2023-04-03T00:52:45;6.33;;;4.10;;
50161;SDS011;36061;48.116;11.612;2023-04-03T00:57:49;3.87;;;3.30;;
50161;SDS011;36061;48.116;11.612;2023-04-03T01:00:20;4.10;;;3.50;;
50161;SDS011;36061;48.116;11.612;2023-04-03T01:02:48;4.23;;;3.33;;
50161;SDS011;36061;48.116;11.612;2023-04-03T01:05:18;6.30;;;3.83;;
50161;SDS011;36061;48.116;11.612;2023-04-03T01:07:47;4.70;;;3.93;;
50161;SDS011;36061;48.116;11.612;2023-04-03T01:10:17;4.50;;;3.20;;
50161;SDS011;36061;48.116;11.612;2023-04-03T01:12:47;8.17;;;4.10;;
50161;SDS011;36061;48.116;11.612;2023-04-03T01:15:17;5.13;;;3.57;;
50161;SDS011;36061;48.116;11.612;2023-04-03T01:17:51;5.80;;;3.20;;
50161;SDS011;36061;48.116;11.612;2023-04-03T01:20:42;5.50;;;3.63;;
50161;SDS011;36061;48.116;11.612;2023-04-03T01:23:43;4.67;;;3.60;;
50161;SDS011;36061;48.116;11.612;2023-04-03T01:26:23;7.10;;;3.87;;
50161;SDS011;36061;48.116;11.612;2023-04-03T01:28:53;4.87;;;3.77;;
50161;SDS011;36061;48.116;11.612;2023-04-03T01:31:22;6.23;;;3.77;;
50161;SDS011;36061;48.116;11.612;2023-04-03T01:33:56;5.83;;;3.93;;
50161;SDS011;36061;48.116;11.612;2023-04-03T01:36:24;5.10;;;3.93;;
50161;SDS011;36061;48.116;11.612;2023-04-03T01:38:54;7.20;;;3.53;;
50161;SDS011;36061;48.116;11.612;2023-04-03T01:41:22;5.27;;;3.67;;
50161;SDS011;36061;48.116;11.612;2023-04-03T01:43:54;5.20;;;3.70;;
50161;SDS011;36061;48.116;11.612;2023-04-03T01:46:21;5.93;;;4.10;;
50161;SDS011;36061;48.116;11.612;2023-04-03T01:48:48;4.63;;;3.40;;
50161;SDS011;36061;48.116;11.612;2023-04-03T01:51:17;6.50;;;4.00;;
50161;SDS011;36061;48.116;11.612;2023-04-03T01:53:44;6.27;;;4.00;;
50161;SDS011;36061;48.116;11.612;2023-04-03T01:56:12;6.40;;;3.83;;
50161;SDS011;36061;48.116;11.612;2023-04-03T01:58:39;4.97;;;3.83;;
50161;SDS011;36061;48.116;11.612;2023-04-03T02:01:07;4.90;;;3.90;;
50161;SDS011;36061;48.116;11.612;2023-04-03T02:03:34;6.20;;;3.80;;
50161;SDS011;36061;48.116;11.612;2023-04-03T02:06:01;6.23;;;3.83;;
50161;SDS011;36061;48.116;11.612;2023-04-03T02:08:30;7.77;;;4.77;;
50161;SDS011;36061;48.116;11.612;2023-04-03T02:10:57;6.83;;;4.00;;
50161;SDS011;36061;48.116;11.612;2023-04-03T02:13:25;5.50;;;3.87;;
50161;SDS011;36061;48.116;11.612;2023-04-03T02:15:52;5.07;;;3.73;;
50161;SDS011;36061;48.116;11.612;2023-04-03T02:18:19;4.77;;;3.70;;
50161;SDS011;36061;48.116;11.612;2023-04-03T02:20:46;5.57;;;3.80;;
50161;SDS011;36061;48.116;11.612;2023-04-03T02:23:14;4.73;;;3.57;;
50161;SDS011;36061;48.116;11.612;2023-04-03T02:25:42;5.87;;;3.97;;
50161;SDS011;36061;48.116;11.612;2023-04-03T02:28:10;5.47;;;3.83;;
50161;SDS011;36061;48.116;11.612;2023-04-03T02:30:37;4.73;;;3.80;;
50161;SDS011;36061;48.116;11.612;2023-04-03T02:33:04;5.67;;;4.00;;
50161;SDS011;36061;48.116;11.612;2023-04-03T02:35:32;4.33;;;3.93;;
50161;SDS011;36061;48.116;11.612;2023-04-03T02:38:00;4.47;;;3.17;;
50161;SDS011;36061;48.116;11.612;2023-04-03T02:40:27;5.33;;;3.57;;
50161;SDS011;36061;48.116;11.612;2023-04-03T02:42:55;4.47;;;3.50;;
50161;SDS011;36061;48.116;11.612;2023-04-03T02:45:24;4.70;;;3.50;;
50161;SDS011;36061;48.116;11.612;2023-04-03T02:47:51;4.60;;;3.10;;
50161;SDS011;36061;48.116;11.612;2023-04-03T02:50:19;4.30;;;3.60;;
50161;SDS011;36061;48.116;11.612;2023-04-03T02:52:46;3.60;;;2.97;;
50161;SDS011;36061;48.116;11.612;2023-04-03T02:55:13;5.80;;;3.30;;
50161;SDS011;36061;48.116;11.612;2023-04-03T02:57:43;4.10;;;3.27;;
50161;SDS011;36061;48.116;11.612;2023-04-03T03:00:13;4.47;;;3.40;;
50161;SDS011;36061;48.116;11.612;2023-04-03T03:02:40;3.77;;;2.83;;
50161;SDS011;36061;48.116;11.612;2023-04-03T03:05:08;4.87;;;3.07;;
50161;SDS011;36061;48.116;11.612;2023-04-03T03:07:35;3.60;;;2.60;;
50161;SDS011;36061;48.116;11.612;2023-04-03T03:10:03;3.77;;;3.07;;
50161;SDS011;36061;48.116;11.612;2023-04-03T03:12:30;4.53;;;2.63;;
50161;SDS011;36061;48.116;11.612;2023-04-03T03:14:58;4.30;;;2.60;;
50161;SDS011;36061;48.116;11.612;2023-04-03T03:17:26;3.47;;;2.70;;
50161;SDS011;36061;48.116;11.612;2023-04-03T03:19:53;3.63;;;2.90;;
50161;SDS011;36061;48.116;11.612;2023-04-03T03:22:21;2.90;;;2.50;;
50161;SDS011;36061;48.116;11.612;2023-04-03T03:24:48;4.83;;;2.73;;
50161;SDS011;36061;48.116;11.612;2023-04-03T03:27:15;3.17;;;2.30;;
50161;SDS011;36061;48.116;11.612;2023-04-03T03:29:42;3.03;;;2.33;;
50161;SDS011;36061;48.116;11.612;2023-04-03T03:32:11;3.10;;;2.70;;
50161;SDS011;36061;48.116;11.612;2023-04-03T03:34:40;3.23;;;2.93;;
50161;SDS011;36061;48.116;11.612;2023-04-03T03:37:07;3.77;;;2.03;;
50161;SDS011;36061;48.116;11.612;2023-04-03T03:39:35;3.23;;;2.30;;
50161;SDS011;36061;48.116;11.612;2023-04-03T03:42:02;5.17;;;2.50;;
50161;SDS011;36061;48.116;11.612;2023-04-03T03:44:29;4.83;;;2.13;;
50161;SDS011;36061;48.116;11.612;2023-04-03T03:46:57;3.40;;;2.50;;
50161;SDS011;36061;48.116;11.612;2023-04-03T03:49:25;2.37;;;2.10;;
50161;SDS011;36061;48.116;11.612;2023-04-03T03:51:54;4.00;;;2.27;;
50161;SDS011;36061;48.116;11.612;2023-04-03T03:54:21;3.03;;;2.50;;
50161;SDS011;36061;48.116;11.612;2023-04-03T03:56:50;4.40;;;2.53;;
50161;SDS011;36061;48.116;11.612;2023-04-03T03:59:17;3.03;;;2.40;;
50161;SDS011;36061;48.116;11.612;2023-04-03T04:01:44;2.53;;;2.27;;
50161;SDS011;36061;48.116;11.612;2023-04-03T04:04:12;3.23;;;2.57;;
50161;SDS011;36061;48.116;11.612;2023-04-03T04:06:39;3.47;;;2.30;;
50161;SDS011;36061;48.116;11.612;2023-04-03T04:09:10;3.27;;;2.30;;
50161;SDS011;36061;48.116;11.612;2023-04-03T04:11:37;2.83;;;2.53;;
50161;SDS011;36061;48.116;11.612;2023-04-03T04:14:05;3.63;;;2.47;;
50161;SDS011;36061;48.116;11.612;2023-04-03T04:16:33;3.37;;;2.53;;
50161;SDS011;36061;48.116;11.612;2023-04-03T04:19:05;3.00;;;2.43;;
50161;SDS011;36061;48.116;11.612;2023-04-03T04:21:33;2.57;;;2.37;;
50161;SDS011;36061;48.116;11.612;2023-04-03T04:24:00;5.57;;;2.17;;
50161;SDS011;36061;48.116;11.612;2023-04-03T04:26:29;2.60;;;2.37;;
50161;SDS011;36061;48.116;11.612;2023-04-03T04:28:57;4.40;;;3.03;;
50161;SDS011;36061;48.116;11.612;2023-04-03T04:31:24;2.40;;;2.20;;
50161;SDS011;36061;48.116;11.612;2023-04-03T04:33:52;3.80;;;2.70;;
50161;SDS011;36061;48.116;11.612;2023-04-03T04:36:20;3.27;;;2.40;;
50161;SDS011;36061;48.116;11.612;2023-04-03T04:38:48;2.57;;;2.33;;
50161;SDS011;36061;48.116;11.612;2023-04-03T04:41:19;3.23;;;2.77;;
50161;SDS011;36061;48.116;11.612;2023-04-03T04:43:49;2.93;;;2.57;;
50161;SDS011;36061;48.116;11.612;2023-04-03T04:46:17;3.87;;;2.07;;
50161;SDS011;36061;48.116;11.612;2023-04-03T04:48:50;2.87;;;2.37;;
50161;SDS011;36061;48.116;11.612;2023-04-03T04:51:19;3.03;;;2.50;;
50161;SDS011;36061;48.116;11.612;2023-04-03T04:53:47;3.30;;;1.93;;
50161;SDS011;36061;48.116;11.612;2023-04-03T04:56:16;3.07;;;2.47;;
50161;SDS011;36061;48.116;11.612;2023-04-03T04:58:44;3.43;;;2.57;;
50161;SDS011;36061;48.116;11.612;2023-04-03T05:01:13;3.30;;;2.67;;
50161;SDS011;36061;48.116;11.612;2023-04-03T05:03:49;2.63;;;2.20;;
50161;SDS011;36061;48.116;11.612;2023-04-03T05:06:17;2.33;;;2.10;;
50161;SDS011;36061;48.116;11.612;2023-04-03T05:08:45;3.27;;;2.90;;
50161;SDS011;36061;48.116;11.612;2023-04-03T05:11:12;4.20;;;2.20;;
50161;SDS011;36061;48.116;11.612;2023-04-03T05:13:42;2.97;;;2.17;;
50161;SDS011;36061;48.116;11.612;2023-04-03T05:16:09;3.00;;;2.30;;
50161;SDS011;36061;48.116;11.612;2023-04-03T05:18:39;3.50;;;2.50;;
50161;SDS011;36061;48.116;11.612;2023-04-03T05:21:10;3.03;;;2.30;;
50161;SDS011;36061;48.116;11.612;2023-04-03T05:23:37;3.27;;;2.50;;
50161;SDS011;36061;48.116;11.612;2023-04-03T05:26:05;3.90;;;2.27;;
50161;SDS011;36061;48.116;11.612;2023-04-03T05:28:33;2.10;;;1.90;;
50161;SDS011;36061;48.116;11.612;2023-04-03T05:31:00;5.10;;;2.40;;
50161;SDS011;36061;48.116;11.612;2023-04-03T05:33:33;5.07;;;2.67;;
50161;SDS011;36061;48.116;11.612;2023-04-03T05:36:05;5.00;;;2.50;;
50161;SDS011;36061;48.116;11.612;2023-04-03T05:38:36;2.80;;;2.40;;
50161;SDS011;36061;48.116;11.612;2023-04-03T05:41:04;3.30;;;2.27;;
50161;SDS011;36061;48.116;11.612;2023-04-03T05:43:31;3.37;;;2.00;;
50161;SDS011;36061;48.116;11.612;2023-04-03T05:46:00;4.90;;;2.23;;
50161;SDS011;36061;48.116;11.612;2023-04-03T05:48:28;2.70;;;1.97;;
50161;SDS011;36061;48.116;11.612;2023-04-03T05:50:56;2.80;;;2.40;;
50161;SDS011;36061;48.116;11.612;2023-04-03T05:53:27;2.60;;;1.97;;
50161;SDS011;36061;48.116;11.612;2023-04-03T05:55:59;2.27;;;2.07;;
50161;SDS011;36061;48.116;11.612;2023-04-03T05:58:29;3.73;;;2.10;;
50161;SDS011;36061;48.116;11.612;2023-04-03T06:00:57;3.93;;;2.40;;
50161;SDS011;36061;48.116;11.612;2023-04-03T06:03:24;4.43;;;2.50;;
50161;SDS011;36061;48.116;11.612;2023-04-03T06:05:52;2.43;;;2.03;;
50161;SDS011;36061;48.116;11.612;2023-04-03T06:08:19;2.27;;;2.07;;
50161;SDS011;36061;48.116;11.612;2023-04-03T06:10:48;3.03;;;2.20;;
50161;SDS011;36061;48.116;11.612;2023-04-03T06:13:16;2.47;;;2.27;;
50161;SDS011;36061;48.116;11.612;2023-04-03T06:15:43;2.63;;;2.10;;
50161;SDS011;36061;48.116;11.612;2023-04-03T06:18:10;2.67;;;2.17;;
50161;SDS011;36061;48.116;11.612;2023-04-03T06:20:37;2.03;;;1.83;;
50161;SDS011;36061;48.116;11.612;2023-04-03T06:23:05;2.37;;;1.90;;
50161;SDS011;36061;48.116;11.612;2023-04-03T06:25:32;3.20;;;2.20;;
50161;SDS011;36061;48.116;11.612;2023-04-03T06:28:01;3.27;;;2.23;;
50161;SDS011;36061;48.116;11.612;2023-04-03T06:30:28;4.93;;;2.63;;
50161;SDS011;36061;48.116;11.612;2023-04-03T06:32:56;4.27;;;2.63;;
50161;SDS011;36061;48.116;11.612;2023-04-03T06:35:24;4.23;;;2.37;;
50161;SDS011;36061;48.116;11.612;2023-04-03T06:37:53;6.03;;;2.27;;
50161;SDS011;36061;48.116;11.612;2023-04-03T06:40:21;2.70;;;2.20;;
50161;SDS011;36061;48.116;11.612;2023-04-03T06:42:50;2.60;;;2.23;;
50161;SDS011;36061;48.116;11.612;2023-04-03T06:45:20;3.67;;;2.07;;
50161;SDS011;36061;48.116;11.612;2023-04-03T06:47:47;7.63;;;2.70;;
50161;SDS011;36061;48.116;11.612;2023-04-03T06:50:14;3.97;;;2.37;;
50161;SDS011;36061;48.116;11.612;2023-04-03T06:52:42;3.80;;;2.50;;
50161;SDS011;36061;48.116;11.612;2023-04-03T06:55:09;4.83;;;2.77;;
50161;SDS011;36061;48.116;11.612;2023-04-03T06:57:37;2.53;;;2.20;;
50161;SDS011;36061;48.116;11.612;2023-04-03T07:00:05;5.37;;;2.30;;
50161;SDS011;36061;48.116;11.612;2023-04-03T07:02:35;3.20;;;2.27;;
50161;SDS011;36061;48.116;11.612;2023-04-03T07:05:03;3.40;;;2.23;;
50161;SDS011;36061;48.116;11.612;2023-04-03T07:07:31;4.30;;;2.20;;
50161;SDS011;36061;48.116;11.612;2023-04-03T07:09:59;6.90;;;2.40;;
50161;SDS011;36061;48.116;11.612;2023-04-03T07:12:26;3.27;;;2.40;;
50161;SDS011;36061;48.116;11.612;2023-04-03T07:14:53;3.33;;;2.30;;
50161;SDS011;36061;48.116;11.612;2023-04-03T07:17:21;4.07;;;2.70;;
50161;SDS011;36061;48.116;11.612;2023-04-03T07:19:49;3.87;;;2.57;;
50161;SDS011;36061;48.116;11.612;2023-04-03T07:22:17;4.27;;;2.50;;
50161;SDS011;36061;48.116;11.612;2023-04-03T07:24:44;2.87;;;2.33;;
50161;SDS011;36061;48.116;11.612;2023-04-03T07:27:12;3.20;;;2.80;;
50161;SDS011;36061;48.116;11.612;2023-04-03T07:29:39;3.73;;;2.90;;
50161;SDS011;36061;48.116;11.612;2023-04-03T07:32:08;4.77;;;2.17;;
50161;SDS011;36061;48.116;11.612;2023-04-03T07:34:35;4.53;;;2.63;;
50161;SDS011;36061;48.116;11.612;2023-04-03T07:37:04;4.20;;;2.83;;
50161;SDS011;36061;48.116;11.612;2023-04-03T07:39:31;3.80;;;2.70;;
50161;SDS011;36061;48.116;11.612;2023-04-03T07:41:59;4.20;;;2.90;;
50161;SDS011;36061;48.116;11.612;2023-04-03T07:44:27;3.97;;;2.83;;
50161;SDS011;36061;48.116;11.612;2023-04-03T07:46:54;3.30;;;2.33;;
50161;SDS011;36061;48.116;11.612;2023-04-03T07:49:22;6.07;;;2.60;;
50161;SDS011;36061;48.116;11.612;2023-04-03T07:51:49;4.60;;;3.00;;
50161;SDS011;36061;48.116;11.612;2023-04-03T07:54:18;4.17;;;2.83;;
50161;SDS011;36061;48.116;11.612;2023-04-03T07:56:45;5.47;;;2.90;;
50161;SDS011;36061;48.116;11.612;2023-04-03T07:59:13;4.17;;;2.87;;
50161;SDS011;36061;48.116;11.612;2023-04-03T08:01:40;4.60;;;4.17;;
50161;SDS011;36061;48.116;11.612;2023-04-03T08:04:08;3.47;;;3.17;;
50161;SDS011;36061;48.116;11.612;2023-04-03T08:06:35;4.83;;;3.57;;
50161;SDS011;36061;48.116;11.612;2023-04-03T08:09:02;4.97;;;3.03;;
50161;SDS011;36061;48.116;11.612;2023-04-03T08:11:31;5.00;;;3.47;;
50161;SDS011;36061;48.116;11.612;2023-04-03T08:13:58;8.97;;;4.97;;
50161;SDS011;36061;48.116;11.612;2023-04-03T08:16:27;5.60;;;4.00;;
50161;SDS011;36061;48.116;11.612;2023-04-03T08:18:54;4.13;;;3.60;;
50161;SDS011;36061;48.116;11.612;2023-04-03T08:21:22;10.80;;;5.57;;
50161;SDS011;36061;48.116;11.612;2023-04-03T08:23:49;6.50;;;4.07;;
50161;SDS011;36061;48.116;11.612;2023-04-03T08:26:18;4.53;;;3.03;;
50161;SDS011;36061;48.116;11.612;2023-04-03T08:28:48;5.23;;;3.57;;
50161;SDS011;36061;48.116;11.612;2023-04-03T08:31:16;4.97;;;3.60;;
50161;SDS011;36061;48.116;11.612;2023-04-03T08:33:45;3.50;;;3.20;;
50161;SDS011;36061;48.116;11.612;2023-04-03T08:36:16;3.60;;;3.20;;
50161;SDS011;36061;48.116;11.612;2023-04-03T08:38:46;3.57;;;3.00;;
50161;SDS011;36061;48.116;11.612;2023-04-03T08:41:15;3.57;;;3.17;;
50161;SDS011;36061;48.116;11.612;2023-04-03T08:43:58;3.43;;;3.00;;
50161;SDS011;36061;48.116;11.612;2023-04-03T08:46:33;4.50;;;3.03;;
50161;SDS011;36061;48.116;11.612;2023-04-03T08:49:15;5.90;;;3.13;;
50161;SDS011;36061;48.116;11.612;2023-04-03T08:51:49;6.80;;;3.30;;
50161;SDS011;36061;48.116;11.612;2023-04-03T08:54:21;5.13;;;3.43;;
50161;SDS011;36061;48.116;11.612;2023-04-03T08:56:54;4.50;;;3.70;;
50161;SDS011;36061;48.116;11.612;2023-04-03T08:59:26;5.57;;;3.40;;
50161;SDS011;36061;48.116;11.612;2023-04-03T09:01:56;4.17;;;3.37;;
50161;SDS011;36061;48.116;11.612;2023-04-03T09:04:27;4.93;;;3.17;;
50161;SDS011;36061;48.116;11.612;2023-04-03T09:06:59;4.20;;;3.10;;
50161;SDS011;36061;48.116;11.612;2023-04-03T09:09:32;3.87;;;3.10;;
50161;SDS011;36061;48.116;11.612;2023-04-03T09:12:06;7.57;;;3.53;;
50161;SDS011;36061;48.116;11.612;2023-04-03T09:14:44;5.70;;;2.90;;
50161;SDS011;36061;48.116;11.612;2023-04-03T09:17:21;4.87;;;3.20;;
50161;SDS011;36061;48.116;11.612;2023-04-03T09:20:01;3.57;;;2.57;;
50161;SDS011;36061;48.116;11.612;2023-04-03T09:22:34;4.60;;;3.13;;
50161;SDS011;36061;48.116;11.612;2023-04-03T09:25:06;4.10;;;2.40;;
50161;SDS011;36061;48.116;11.612;2023-04-03T09:27:38;4.53;;;3.53;;
50161;SDS011;36061;48.116;11.612;2023-04-03T09:30:08;7.80;;;3.53;;
50161;SDS011;36061;48.116;11.612;2023-04-03T09:32:41;4.03;;;2.73;;
50161;SDS011;36061;48.116;11.612;2023-04-03T09:35:22;7.93;;;3.33;;
50161;SDS011;36061;48.116;11.612;2023-04-03T09:37:51;4.63;;;3.20;;
50161;SDS011;36061;48.116;11.612;2023-04-03T09:43:21;6.10;;;3.40;;
50161;SDS011;36061;48.116;11.612;2023-04-03T09:45:54;3.10;;;2.80;;
50161;SDS011;36061;48.116;11.612;2023-04-03T09:48:23;4.57;;;3.10;;
50161;SDS011;36061;48.116;11.612;2023-04-03T09:50:53;3.87;;;2.93;;
50161;SDS011;36061;48.116;11.612;2023-04-03T09:53:27;3.23;;;2.77;;
50161;SDS011;36061;48.116;11.612;2023-04-03T09:55:56;2.73;;;2.20;;
50161;SDS011;36061;48.116;11.612;2023-04-03T09:58:25;2.77;;;2.30;;
50161;SDS011;36061;48.116;11.612;2023-04-03T10:00:56;9.63;;;2.97;;
50161;SDS011;36061;48.116;11.612;2023-04-03T10:03:27;2.93;;;2.60;;
50161;SDS011;36061;48.116;11.612;2023-04-03T10:05:56;4.57;;;3.03;;
50161;SDS011;36061;48.116;11.612;2023-04-03T10:08:25;4.77;;;2.83;;
50161;SDS011;36061;48.116;11.612;2023-04-03T10:11:11;4.33;;;2.33;;
50161;SDS011;36061;48.116;11.612;2023-04-03T10:13:51;3.93;;;2.63;;
50161;SDS011;36061;48.116;11.612;2023-04-03T10:16:22;4.43;;;3.20;;
50161;SDS011;36061;48.116;11.612;2023-04-03T10:18:56;4.50;;;2.97;;
50161;SDS011;36061;48.116;11.612;2023-04-03T10:21:53;3.43;;;3.13;;
50161;SDS011;36061;48.116;11.612;2023-04-03T10:24:25;4.20;;;2.63;;
50161;SDS011;36061;48.116;11.612;2023-04-03T10:27:01;4.87;;;2.80;;
50161;SDS011;36061;48.116;11.612;2023-04-03T10:29:38;3.67;;;2.50;;
50161;SDS011;36061;48.116;11.612;2023-04-03T10:35:14;5.23;;;3.53;;
50161;SDS011;36061;48.116;11.612;2023-04-03T10:37:52;7.97;;;4.03;;
50161;SDS011;36061;48.116;11.612;2023-04-03T10:40:29;3.77;;;2.60;;
50161;SDS011;36061;48.116;11.612;2023-04-03T10:43:02;5.63;;;2.97;;
50161;SDS011;36061;48.116;11.612;2023-04-03T10:45:43;2.83;;;2.30;;
50161;SDS011;36061;48.116;11.612;2023-04-03T10:48:23;3.53;;;2.80;;
50161;SDS011;36061;48.116;11.612;2023-04-03T10:51:06;2.07;;;1.80;;
50161;SDS011;36061;48.116;11.612;2023-04-03T10:53:44;5.83;;;2.50;;
50161;SDS011;36061;48.116;11.612;2023-04-03T10:56:18;4.70;;;2.20;;
50161;SDS011;36061;48.116;11.612;2023-04-03T10:58:53;4.40;;;2.70;;
50161;SDS011;36061;48.116;11.612;2023-04-03T11:01:26;3.07;;;2.50;;
50161;SDS011;36061;48.116;11.612;2023-04-03T11:04:00;5.43;;;2.60;;
50161;SDS011;36061;48.116;11.612;2023-04-03T11:06:31;4.23;;;2.70;;
50161;SDS011;36061;48.116;11.612;2023-04-03T11:09:05;4.77;;;3.27;;
50161;SDS011;36061;48.116;11.612;2023-04-03T11:11:38;5.53;;;3.30;;
50161;SDS011;36061;48.116;11.612;2023-04-03T11:14:09;3.30;;;2.60;;
50161;SDS011;36061;48.116;11.612;2023-04-03T11:16:42;6.53;;;4.67;;
50161;SDS011;36061;48.116;11.612;2023-04-03T11:19:16;3.80;;;2.80;;
50161;SDS011;36061;48.116;11.612;2023-04-03T11:21:51;3.80;;;2.70;;
50161;SDS011;36061;48.116;11.612;2023-04-03T11:24:25;3.13;;;2.20;;
50161;SDS011;36061;48.116;11.612;2023-04-03T11:26:56;2.60;;;2.13;;
50161;SDS011;36061;48.116;11.612;2023-04-03T11:29:27;2.47;;;1.90;;
50161;SDS011;36061;48.116;11.612;2023-04-03T11:32:03;3.67;;;2.23;;
50161;SDS011;36061;48.116;11.612;2023-04-03T11:34:40;5.03;;;1.73;;
50161;SDS011;36061;48.116;11.612;2023-04-03T11:37:14;3.00;;;1.90;;
50161;SDS011;36061;48.116;11.612;2023-04-03T11:39:50;4.20;;;2.40;;
50161;SDS011;36061;48.116;11.612;2023-04-03T11:42:33;2.80;;;2.03;;
50161;SDS011;36061;48.116;11.612;2023-04-03T11:48:05;2.57;;;1.93;;
50161;SDS011;36061;48.116;11.612;2023-04-03T11:50:59;2.10;;;1.70;;
50161;SDS011;36061;48.116;11.612;2023-04-03T11:53:30;3.97;;;2.60;;
50161;SDS011;36061;48.116;11.612;2023-04-03T12:01:56;1.80;;;1.50;;
50161;SDS011;36061;48.116;11.612;2023-04-03T12:04:25;2.37;;;1.60;;
50161;SDS011;36061;48.116;11.612;2023-04-03T12:12:55;1.50;;;1.30;;
50161;SDS011;36061;48.116;11.612;2023-04-03T12:15:26;3.20;;;1.43;;
50161;SDS011;36061;48.116;11.612;2023-04-03T12:21:18;2.17;;;1.30;;
50161;SDS011;36061;48.116;11.612;2023-04-03T12:23:57;2.07;;;1.50;;
50161;SDS011;36061;48.116;11.612;2023-04-03T12:26:27;5.87;;;1.67;;
50161;SDS011;36061;48.116;11.612;2023-04-03T12:29:02;3.37;;;1.63;;
50161;SDS011;36061;48.116;11.612;2023-04-03T12:31:50;3.03;;;1.77;;
50161;SDS011;36061;48.116;11.612;2023-04-03T12:34:29;4.80;;;1.40;;
50161;SDS011;36061;48.116;11.612;2023-04-03T12:37:19;3.20;;;1.40;;
50161;SDS011;36061;48.116;11.612;2023-04-03T12:40:05;2.70;;;1.77;;
50161;SDS011;36061;48.116;11.612;2023-04-03T12:42:52;2.70;;;1.70;;
50161;SDS011;36061;48.116;11.612;2023-04-03T12:45:40;1.90;;;1.40;;
50161;SDS011;36061;48.116;11.612;2023-04-03T12:48:15;2.87;;;1.40;;
50161;SDS011;36061;48.116;11.612;2023-04-03T12:50:50;3.30;;;1.30;;
50161;SDS011;36061;48.116;11.612;2023-04-03T12:53:18;1.30;;;1.20;;
50161;SDS011;36061;48.116;11.612;2023-04-03T12:55:54;12.23;;;2.60;;
50161;SDS011;36061;48.116;11.612;2023-04-03T12:58:23;2.10;;;1.40;;
50161;SDS011;36061;48.116;11.612;2023-04-03T13:01:00;1.97;;;1.33;;
50161;SDS011;36061;48.116;11.612;2023-04-03T13:03:29;2.97;;;1.80;;
50161;SDS011;36061;48.116;11.612;2023-04-03T13:05:58;3.60;;;1.33;;
50161;SDS011;36061;48.116;11.612;2023-04-03T13:08:29;3.67;;;1.80;;
50161;SDS011;36061;48.116;11.612;2023-04-03T13:10:59;5.60;;;1.60;;
50161;SDS011;36061;48.116;11.612;2023-04-03T13:13:30;5.37;;;1.70;;
50161;SDS011;36061;48.116;11.612;2023-04-03T13:15:57;3.10;;;1.50;;
50161;SDS011;36061;48.116;11.612;2023-04-03T13:18:26;2.83;;;1.70;;
50161;SDS011;36061;48.116;11.612;2023-04-03T13:20:57;3.63;;;2.00;;
50161;SDS011;36061;48.116;11.612;2023-04-03T13:23:28;4.97;;;1.53;;
50161;SDS011;36061;48.116;11.612;2023-04-03T13:25:56;5.70;;;2.50;;
50161;SDS011;36061;48.116;11.612;2023-04-03T13:28:29;5.13;;;2.10;;
50161;SDS011;36061;48.116;11.612;2023-04-03T13:31:02;4.00;;;1.70;;
50161;SDS011;36061;48.116;11.612;2023-04-03T13:33:33;2.40;;;1.60;;
50161;SDS011;36061;48.116;11.612;2023-04-03T13:36:05;1.33;;;1.10;;
50161;SDS011;36061;48.116;11.612;2023-04-03T13:38:38;2.13;;;1.10;;
50161;SDS011;36061;48.116;11.612;2023-04-03T13:41:21;4.07;;;1.53;;
50161;SDS011;36061;48.116;11.612;2023-04-03T13:43:51;2.73;;;1.53;;
50161;SDS011;36061;48.116;11.612;2023-04-03T13:46:25;4.20;;;1.20;;
50161;SDS011;36061;48.116;11.612;2023-04-03T13:48:54;1.97;;;1.30;;
50161;SDS011;36061;48.116;11.612;2023-04-03T13:51:23;7.40;;;1.70;;
50161;SDS011;36061;48.116;11.612;2023-04-03T13:53:55;5.03;;;1.40;;
50161;SDS011;36061;48.116;11.612;2023-04-03T13:56:26;4.73;;;1.70;;
50161;SDS011;36061;48.116;11.612;2023-04-03T13:59:00;2.27;;;1.10;;
50161;SDS011;36061;48.116;11.612;2023-04-03T14:01:38;2.67;;;1.33;;
50161;SDS011;36061;48.116;11.612;2023-04-03T14:04:16;2.03;;;1.20;;
50161;SDS011;36061;48.116;11.612;2023-04-03T14:06:45;2.13;;;0.97;;
50161;SDS011;36061;48.116;11.612;2023-04-03T14:09:13;2.87;;;1.30;;
50161;SDS011;36061;48.116;11.612;2023-04-03T14:11:43;4.63;;;1.77;;
50161;SDS011;36061;48.116;11.612;2023-04-03T14:14:13;3.03;;;1.57;;
50161;SDS011;36061;48.116;11.612;2023-04-03T14:16:43;2.37;;;1.40;;
50161;SDS011;36061;48.116;11.612;2023-04-03T14:19:16;2.20;;;1.40;;
50161;SDS011;36061;48.116;11.612;2023-04-03T14:21:46;2.00;;;1.33;;
50161;SDS011;36061;48.116;11.612;2023-04-03T14:24:14;2.97;;;1.40;;
50161;SDS011;36061;48.116;11.612;2023-04-03T14:26:41;1.83;;;1.47;;
50161;SDS011;36061;48.116;11.612;2023-04-03T14:29:11;2.37;;;1.10;;
50161;SDS011;36061;48.116;11.612;2023-04-03T14:31:40;4.33;;;1.40;;
50161;SDS011;36061;48.116;11.612;2023-04-03T14:34:09;3.17;;;1.40;;
50161;SDS011;36061;48.116;11.612;2023-04-03T14:36:36;2.67;;;1.20;;
50161;SDS011;36061;48.116;11.612;2023-04-03T14:39:04;2.13;;;1.47;;
50161;SDS011;36061;48.116;11.612;2023-04-03T14:41:32;2.00;;;1.50;;
50161;SDS011;36061;48.116;11.612;2023-04-03T14:44:01;1.53;;;1.43;;
50161;SDS011;36061;48.116;11.612;2023-04-03T14:46:30;2.03;;;1.40;;
50161;SDS011;36061;48.116;11.612;2023-04-03T14:48:59;2.07;;;1.10;;
50161;SDS011;36061;48.116;11.612;2023-04-03T14:51:26;1.23;;;1.13;;
50161;SDS011;36061;48.116;11.612;2023-04-03T14:53:53;1.50;;;1.17;;
50161;SDS011;36061;48.116;11.612;2023-04-03T14:56:23;3.67;;;1.37;;
50161;SDS011;36061;48.116;11.612;2023-04-03T14:58:54;1.63;;;1.33;;
50161;SDS011;36061;48.116;11.612;2023-04-03T15:01:25;2.17;;;1.13;;
50161;SDS011;36061;48.116;11.612;2023-04-03T15:03:53;1.47;;;1.37;;
50161;SDS011;36061;48.116;11.612;2023-04-03T15:06:20;1.70;;;1.30;;
50161;SDS011;36061;48.116;11.612;2023-04-03T15:08:47;3.10;;;1.37;;
50161;SDS011;36061;48.116;11.612;2023-04-03T15:11:15;1.03;;;0.90;;
50161;SDS011;36061;48.116;11.612;2023-04-03T15:13:42;2.90;;;1.20;;
50161;SDS011;36061;48.116;11.612;2023-04-03T15:16:12;4.33;;;1.20;;
50161;SDS011;36061;48.116;11.612;2023-04-03T15:18:44;1.70;;;1.20;;
50161;SDS011;36061;48.116;11.612;2023-04-03T15:21:13;1.10;;;0.97;;